createdAt,value
2022-11-21T00:01:22.290Z,6.69
2022-11-21T00:03:50.654Z,6.71
2022-11-21T00:06:19.495Z,6.78
2022-11-21T00:08:47.362Z,6.74
2022-11-21T00:11:15.159Z,6.77
2022-11-21T00:13:43.450Z,6.77
2022-11-21T00:16:15.458Z,6.85
2022-11-21T00:18:44.203Z,6.85
2022-11-21T00:21:16.145Z,6.85
2022-11-21T00:23:45.325Z,6.89
2022-11-21T00:26:15.218Z,6.92
2022-11-21T00:28:42.935Z,6.85
2022-11-21T00:31:22.837Z,6.82
2022-11-21T00:33:50.690Z,6.85
2022-11-21T00:36:18.476Z,6.81
2022-11-21T00:38:46.071Z,6.81
2022-11-21T00:41:13.718Z,6.77
2022-11-21T00:43:41.344Z,6.77
2022-11-21T00:46:08.903Z,6.76
2022-11-21T00:48:36.599Z,6.64
2022-11-21T00:51:04.262Z,6.53
2022-11-21T00:53:32.037Z,6.59
2022-11-21T00:55:59.660Z,6.52
2022-11-21T00:58:27.783Z,6.50
2022-11-21T01:01:04.585Z,6.42
2022-11-21T01:03:35.034Z,6.39
2022-11-21T01:06:09.725Z,6.39
2022-11-21T01:08:41.104Z,6.38
2022-11-21T01:11:13.136Z,6.28
2022-11-21T01:13:41.982Z,6.32
2022-11-21T01:16:22.327Z,6.33
2022-11-21T01:18:50.309Z,6.29
2022-11-21T01:21:24.182Z,6.43
2022-11-21T01:23:52.911Z,6.46
2022-11-21T01:26:24.512Z,6.48
2022-11-21T01:28:52.797Z,6.49
2022-11-21T01:31:29.381Z,6.47
2022-11-21T01:33:59.713Z,6.60
2022-11-21T01:36:33.631Z,6.53
2022-11-21T01:39:05.861Z,6.51
2022-11-21T01:41:37.821Z,6.50
2022-11-21T01:44:24.552Z,6.63
2022-11-21T01:46:53.236Z,6.69
2022-11-21T01:49:26.628Z,6.73
2022-11-21T01:52:29.247Z,6.76
2022-11-21T01:55:08.101Z,6.75
2022-11-21T01:57:45.312Z,6.76
2022-11-21T02:00:22.160Z,6.81
2022-11-21T02:03:00.840Z,6.83
2022-11-21T02:05:31.835Z,6.79
2022-11-21T02:08:06.733Z,6.90
2022-11-21T02:10:36.983Z,6.96
2022-11-21T02:13:04.553Z,7.02
2022-11-21T02:15:32.149Z,7.03
2022-11-21T02:17:59.934Z,7.08
2022-11-21T02:20:29.383Z,7.08
2022-11-21T02:23:13.785Z,7.09
2022-11-21T02:25:43.190Z,7.10
2022-11-21T02:28:21.386Z,7.00
2022-11-21T02:30:49.177Z,7.03
2022-11-21T02:33:17.218Z,7.00
2022-11-21T02:35:45.028Z,7.07
2022-11-21T02:38:22.915Z,7.10
2022-11-21T02:41:17.170Z,7.09
2022-11-21T02:44:02.413Z,7.06
2022-11-21T02:46:30.013Z,7.05
2022-11-21T02:48:59.405Z,6.92
2022-11-21T02:51:26.986Z,6.97
2022-11-21T02:53:54.557Z,6.90
2022-11-21T02:56:22.112Z,6.87
2022-11-21T02:58:50.019Z,6.77
2022-11-21T03:01:17.631Z,6.74
2022-11-21T03:03:45.195Z,6.64
2022-11-21T03:06:12.798Z,6.60
2022-11-21T03:08:40.354Z,6.42
2022-11-21T03:11:07.884Z,6.31
2022-11-21T03:13:35.915Z,6.34
2022-11-21T03:16:03.728Z,6.23
2022-11-21T03:18:31.367Z,6.25
2022-11-21T03:20:58.985Z,6.14
2022-11-21T03:23:26.593Z,6.15
2022-11-21T03:25:54.247Z,6.20
2022-11-21T03:28:21.888Z,6.15
2022-11-21T03:30:49.430Z,6.05
2022-11-21T03:33:17.111Z,6.03
2022-11-21T03:35:44.646Z,6.07
2022-11-21T03:38:12.397Z,6.02
2022-11-21T03:40:39.935Z,5.94
2022-11-21T03:43:08.253Z,5.98
2022-11-21T03:45:35.793Z,5.90
2022-11-21T03:48:03.545Z,5.92
2022-11-21T03:50:31.317Z,5.86
2022-11-21T03:52:58.868Z,5.83
2022-11-21T03:55:26.413Z,5.81
2022-11-21T03:57:54.005Z,5.79
2022-11-21T04:00:21.734Z,5.75
2022-11-21T04:02:49.350Z,5.69
2022-11-21T04:05:16.972Z,5.72
2022-11-21T04:07:46.095Z,5.75
2022-11-21T04:10:14.046Z,5.76
2022-11-21T04:12:41.660Z,5.73
2022-11-21T04:15:13.711Z,5.78
2022-11-21T04:17:41.729Z,5.77
2022-11-21T04:20:10.423Z,5.89
2022-11-21T04:22:37.997Z,5.81
2022-11-21T04:25:06.423Z,5.88
2022-11-21T04:27:33.979Z,5.94
2022-11-21T04:30:01.804Z,5.95
2022-11-21T04:32:29.481Z,5.96
2022-11-21T04:34:57.110Z,5.84
2022-11-21T04:37:24.689Z,5.94
2022-11-21T04:39:52.285Z,5.83
2022-11-21T04:42:19.854Z,5.92
2022-11-21T04:44:47.494Z,5.82
2022-11-21T04:47:15.049Z,5.82
2022-11-21T04:49:42.632Z,5.71
2022-11-21T04:52:10.273Z,5.69
2022-11-21T04:54:37.801Z,5.67
2022-11-21T04:57:05.495Z,5.67
2022-11-21T04:59:33.111Z,5.69
2022-11-21T05:02:03.072Z,5.64
2022-11-21T05:04:30.664Z,5.65
2022-11-21T05:06:58.289Z,5.62
2022-11-21T05:09:25.920Z,5.68
2022-11-21T05:12:12.294Z,5.63
2022-11-21T05:14:39.994Z,5.59
2022-11-21T05:17:07.739Z,5.51
2022-11-21T05:19:35.285Z,5.42
2022-11-21T05:22:03.043Z,5.39
2022-11-21T05:24:30.718Z,5.38
2022-11-21T05:26:58.484Z,5.32
2022-11-21T05:29:28.276Z,5.42
2022-11-21T05:31:56.349Z,5.32
2022-11-21T05:34:23.926Z,5.36
2022-11-21T05:36:57.329Z,5.23
2022-11-21T05:39:26.154Z,5.31
2022-11-21T05:41:57.172Z,5.23
2022-11-21T05:44:27.590Z,5.19
2022-11-21T05:46:55.382Z,5.15
2022-11-21T05:49:23.072Z,5.09
2022-11-21T05:51:50.720Z,5.10
2022-11-21T05:54:18.282Z,5.01
2022-11-21T05:56:45.933Z,5.01
2022-11-21T05:59:13.556Z,4.95
2022-11-21T06:01:59.663Z,4.99
2022-11-21T06:04:27.434Z,4.85
2022-11-21T06:06:55.146Z,4.82
2022-11-21T06:09:22.701Z,4.87
2022-11-21T06:11:50.320Z,4.76
2022-11-21T06:14:17.917Z,4.82
2022-11-21T06:16:45.511Z,4.67
2022-11-21T06:19:13.084Z,4.71
2022-11-21T06:21:41.011Z,4.73
2022-11-21T06:24:08.898Z,4.61
2022-11-21T06:26:36.545Z,4.64
2022-11-21T06:29:04.069Z,4.65
2022-11-21T06:31:32.130Z,4.68
2022-11-21T06:34:00.014Z,4.65
2022-11-21T06:36:27.843Z,4.62
2022-11-21T06:38:56.670Z,4.57
2022-11-21T06:41:30.179Z,4.61
2022-11-21T06:44:01.722Z,4.59
2022-11-21T06:46:29.494Z,4.56
2022-11-21T06:48:57.123Z,4.58
2022-11-21T06:51:25.985Z,4.62
2022-11-21T06:53:59.192Z,4.65
2022-11-21T06:56:30.060Z,4.57
2022-11-21T06:58:58.533Z,4.57
2022-11-21T07:01:26.647Z,4.49
2022-11-21T07:03:55.115Z,4.51
2022-11-21T07:06:23.355Z,4.38
2022-11-21T07:09:17.609Z,4.44
2022-11-21T07:11:42.214Z,4.44
2022-11-21T07:14:10.000Z,4.41
2022-11-21T07:16:37.597Z,4.41
2022-11-21T07:19:05.705Z,4.35
2022-11-21T07:21:33.307Z,4.42
2022-11-21T07:24:00.880Z,4.50
2022-11-21T07:26:28.509Z,4.41
2022-11-21T07:28:56.262Z,4.48
2022-11-21T07:31:23.873Z,4.51
2022-11-21T07:33:51.476Z,4.50
2022-11-21T07:36:19.089Z,4.46
2022-11-21T07:38:47.020Z,4.54
2022-11-21T07:41:14.608Z,4.59
2022-11-21T07:43:42.230Z,4.55
2022-11-21T07:46:09.787Z,4.58
2022-11-21T07:48:37.409Z,4.64
2022-11-21T07:51:06.038Z,4.65
2022-11-21T07:53:33.820Z,4.61
2022-11-21T07:56:01.442Z,4.56
2022-11-21T07:58:29.185Z,4.54
2022-11-21T08:00:57.252Z,4.60
2022-11-21T08:03:25.420Z,4.55
2022-11-21T08:05:53.048Z,4.55
2022-11-21T08:08:20.649Z,4.52
2022-11-21T08:10:48.535Z,4.53
2022-11-21T08:13:16.161Z,4.58
2022-11-21T08:15:43.801Z,4.55
2022-11-21T08:18:15.128Z,4.49
2022-11-21T08:20:43.042Z,4.61
2022-11-21T08:23:11.083Z,4.61
2022-11-21T08:25:40.436Z,4.58
2022-11-21T08:28:10.266Z,4.70
2022-11-21T08:30:39.090Z,4.70
2022-11-21T08:33:07.156Z,4.70
2022-11-21T08:35:40.067Z,4.69
2022-11-21T08:38:08.234Z,4.75
2022-11-21T08:40:36.739Z,4.79
2022-11-21T08:43:08.914Z,4.86
2022-11-21T08:45:38.528Z,4.89
2022-11-21T08:48:15.214Z,4.91
2022-11-21T08:50:42.866Z,4.97
2022-11-21T08:53:10.447Z,5.06
2022-11-21T08:55:38.138Z,5.14
2022-11-21T08:58:05.748Z,5.15
2022-11-21T09:00:33.357Z,5.20
2022-11-21T09:03:05.606Z,5.17
2022-11-21T09:05:34.239Z,5.27
2022-11-21T09:08:01.824Z,5.35
2022-11-21T09:10:29.595Z,5.35
2022-11-21T09:13:00.672Z,5.52
2022-11-21T09:15:48.034Z,5.51
2022-11-21T09:18:15.809Z,5.65
2022-11-21T09:20:45.086Z,5.72
2022-11-21T09:23:15.665Z,5.79
2022-11-21T09:25:44.249Z,5.85
2022-11-21T09:28:14.058Z,5.84
2022-11-21T09:30:42.524Z,5.96
2022-11-21T09:33:16.952Z,6.03
2022-11-21T09:35:45.012Z,6.06
2022-11-21T09:38:13.034Z,6.01
2022-11-21T09:40:46.507Z,6.11
2022-11-21T09:43:32.437Z,6.09
2022-11-21T09:46:20.021Z,6.13
2022-11-21T09:49:01.043Z,6.13
2022-11-21T09:51:31.737Z,6.13
2022-11-21T09:54:27.327Z,6.15
2022-11-21T09:56:56.422Z,6.14
2022-11-21T09:59:37.153Z,6.20
2022-11-21T10:02:17.130Z,6.30
2022-11-21T10:04:47.196Z,6.37
2022-11-21T10:07:32.553Z,6.32
2022-11-21T10:10:21.341Z,6.41
2022-11-21T10:13:20.183Z,6.43
2022-11-21T10:15:55.764Z,6.45
2022-11-21T10:18:44.526Z,6.45
2022-11-21T10:21:20.921Z,6.49
2022-11-21T10:24:00.374Z,6.54
2022-11-21T10:26:58.247Z,6.56
2022-11-21T10:29:38.500Z,6.66
2022-11-21T10:32:31.125Z,6.70
2022-11-21T10:35:12.851Z,6.68
2022-11-21T10:37:47.270Z,6.79
2022-11-21T10:40:37.400Z,6.86
2022-11-21T10:43:32.538Z,6.87
2022-11-21T10:46:00.260Z,6.92
2022-11-21T10:48:27.795Z,6.97
2022-11-21T10:51:38.999Z,6.94
2022-11-21T10:54:31.056Z,6.96
2022-11-21T10:57:16.573Z,6.97
2022-11-21T11:00:03.585Z,7.02
2022-11-21T11:02:31.563Z,6.99
2022-11-21T11:05:22.750Z,7.05
2022-11-21T11:08:06.872Z,7.04
2022-11-21T11:10:40.946Z,7.09
2022-11-21T11:13:45.950Z,7.08
2022-11-21T11:16:21.368Z,7.17
2022-11-21T11:18:59.144Z,7.18
2022-11-21T11:21:46.494Z,7.11
2022-11-21T11:24:14.016Z,7.18
2022-11-21T11:26:48.613Z,7.19
2022-11-21T11:29:27.794Z,7.15
2022-11-21T11:31:58.696Z,7.20
2022-11-21T11:34:38.223Z,7.13
2022-11-21T11:37:20.724Z,7.22
2022-11-21T11:40:27.778Z,7.21
2022-11-21T11:43:22.490Z,7.21
2022-11-21T11:46:43.474Z,7.22
2022-11-21T11:49:57.704Z,7.25
2022-11-21T11:52:33.138Z,7.25
2022-11-21T11:55:06.835Z,7.24
2022-11-21T11:57:37.571Z,7.21
2022-11-21T12:00:16.839Z,7.23
2022-11-21T12:03:25.255Z,7.19
2022-11-21T12:06:14.280Z,7.15
2022-11-21T12:08:54.817Z,7.10
2022-11-21T12:12:08.784Z,7.22
2022-11-21T12:15:14.493Z,7.22
2022-11-21T12:18:15.917Z,7.21
2022-11-21T12:20:59.282Z,7.28
2022-11-21T12:23:52.532Z,7.30
2022-11-21T12:26:57.164Z,7.32
2022-11-21T12:29:30.969Z,7.34
2022-11-21T12:32:24.570Z,7.34
2022-11-21T12:35:25.980Z,7.37
2022-11-21T12:38:27.093Z,7.38
2022-11-21T12:41:32.602Z,7.40
2022-11-21T12:44:29.215Z,7.41
2022-11-21T12:47:24.747Z,7.47
2022-11-21T12:50:37.984Z,7.49
2022-11-21T12:53:46.856Z,7.56
2022-11-21T12:56:30.498Z,7.57
2022-11-21T12:59:00.500Z,7.52
2022-11-21T13:02:14.953Z,7.63
2022-11-21T13:04:44.365Z,7.67
2022-11-21T13:07:12.603Z,7.69
2022-11-21T13:09:43.911Z,7.69
2022-11-21T13:12:18.771Z,7.74
2022-11-21T13:15:21.629Z,7.75
2022-11-21T13:18:15.438Z,7.77
2022-11-21T13:20:50.323Z,7.72
2022-11-21T13:23:42.949Z,7.75
2022-11-21T13:26:33.806Z,7.86
2022-11-21T13:29:14.171Z,7.80
2022-11-21T13:31:42.446Z,7.86
2022-11-21T13:34:31.755Z,7.94
2022-11-21T13:36:59.568Z,7.83
2022-11-21T13:39:34.735Z,7.89
2022-11-21T13:42:23.199Z,7.94
2022-11-21T13:44:51.409Z,7.96
2022-11-21T13:47:45.645Z,8.01
2022-11-21T13:50:31.870Z,8.02
2022-11-21T13:53:29.687Z,8.04
2022-11-21T13:56:13.191Z,8.05
2022-11-21T13:59:10.024Z,8.10
2022-11-21T14:02:18.615Z,8.09
2022-11-21T14:05:23.896Z,8.07
2022-11-21T14:07:51.809Z,8.02
2022-11-21T14:10:25.552Z,8.08
2022-11-21T14:12:55.033Z,8.07
2022-11-21T14:15:53.192Z,8.02
2022-11-21T14:18:23.077Z,8.07
2022-11-21T14:21:01.649Z,8.11
2022-11-21T14:23:33.366Z,8.10
2022-11-21T14:26:06.136Z,8.05
2022-11-21T14:28:35.702Z,8.08
2022-11-21T14:31:06.838Z,8.01
2022-11-21T14:33:37.658Z,8.08
2022-11-21T14:36:17.736Z,8.09
2022-11-21T14:39:13.937Z,7.99
2022-11-21T14:41:39.939Z,8.06
2022-11-21T14:44:17.046Z,8.10
2022-11-21T14:46:47.395Z,8.09
2022-11-21T14:49:17.906Z,8.10
2022-11-21T14:52:17.686Z,8.07
2022-11-21T14:55:28.972Z,8.04
2022-11-21T14:57:42.648Z,8.00
2022-11-21T15:00:43.434Z,7.97
2022-11-21T15:03:04.351Z,7.93
2022-11-21T15:06:01.349Z,7.99
2022-11-21T15:09:18.443Z,8.05
2022-11-21T15:11:16.331Z,8.00
2022-11-21T15:14:14.470Z,7.97
2022-11-21T15:16:38.914Z,7.94
2022-11-21T15:19:22.135Z,8.00
2022-11-21T15:21:52.777Z,8.00
2022-11-21T15:24:42.263Z,8.01
2022-11-21T15:27:28.201Z,8.01
2022-11-21T15:30:14.810Z,8.00
2022-11-21T15:33:02.792Z,7.93
2022-11-21T15:35:55.617Z,8.03
2022-11-21T15:39:06.996Z,7.96
2022-11-21T15:41:36.626Z,7.99
2022-11-21T15:44:04.103Z,8.01
2022-11-21T15:46:41.876Z,7.93
2022-11-21T15:49:32.409Z,7.93
2022-11-21T15:52:09.542Z,7.90
2022-11-21T15:54:38.122Z,7.89
2022-11-21T15:57:05.781Z,7.86
2022-11-21T15:59:33.369Z,7.91
2022-11-21T16:02:01.245Z,7.95
2022-11-21T16:04:29.105Z,7.86
2022-11-21T16:06:56.703Z,7.82
2022-11-21T16:09:25.177Z,7.89
2022-11-21T16:11:52.811Z,7.86
2022-11-21T16:14:20.365Z,7.83
2022-11-21T16:16:48.044Z,7.77
2022-11-21T16:19:15.980Z,7.77
2022-11-21T16:21:43.647Z,7.73
2022-11-21T16:24:11.311Z,7.72
2022-11-21T16:26:38.886Z,7.75
2022-11-21T16:29:06.988Z,7.80
2022-11-21T16:31:34.865Z,7.72
2022-11-21T16:34:02.597Z,7.73
2022-11-21T16:36:31.964Z,7.74
2022-11-21T16:39:07.636Z,7.70
2022-11-21T16:41:36.960Z,7.79
2022-11-21T16:44:04.717Z,7.74
2022-11-21T16:46:32.975Z,7.71
2022-11-21T16:49:02.861Z,7.73
2022-11-21T16:51:30.555Z,7.75
2022-11-21T16:54:01.703Z,7.77
2022-11-21T16:56:33.611Z,7.73
2022-11-21T16:59:01.153Z,7.78
2022-11-21T17:01:28.921Z,7.68
2022-11-21T17:03:56.634Z,7.68
2022-11-21T17:06:29.282Z,7.74
2022-11-21T17:08:59.266Z,7.72
2022-11-21T17:11:31.082Z,7.72
2022-11-21T17:14:05.157Z,7.70
2022-11-21T17:16:34.563Z,7.72
2022-11-21T17:19:04.321Z,7.72
2022-11-21T17:21:33.380Z,7.69
2022-11-21T17:24:01.346Z,7.68
2022-11-21T17:26:30.251Z,7.60
2022-11-21T17:29:01.053Z,7.65
2022-11-21T17:31:28.950Z,7.59
2022-11-21T17:34:01.372Z,7.57
2022-11-21T17:36:30.631Z,7.54
2022-11-21T17:38:58.889Z,7.52
2022-11-21T17:41:27.493Z,7.46
2022-11-21T17:43:59.851Z,7.46
2022-11-21T17:46:28.482Z,7.39
2022-11-21T17:48:58.785Z,7.38
2022-11-21T17:51:30.721Z,7.42
2022-11-21T17:53:59.591Z,7.38
2022-11-21T17:56:30.780Z,7.37
2022-11-21T17:58:58.517Z,7.31
2022-11-21T18:01:26.793Z,7.37
2022-11-21T18:04:00.103Z,7.38
2022-11-21T18:06:32.770Z,7.39
2022-11-21T18:09:00.498Z,7.34
2022-11-21T18:11:36.036Z,7.43
2022-11-21T18:14:09.303Z,7.41
2022-11-21T18:16:39.859Z,7.39
2022-11-21T18:19:12.870Z,7.49
2022-11-21T18:21:40.797Z,7.47
2022-11-21T18:24:09.741Z,7.41
2022-11-21T18:26:38.960Z,7.45
2022-11-21T18:31:58.840Z,7.48
2022-11-21T18:34:26.378Z,7.49
2022-11-21T18:36:54.507Z,7.40
2022-11-21T18:39:24.946Z,7.49
2022-11-21T18:41:52.801Z,7.46
2022-11-21T18:44:22.492Z,7.39
2022-11-21T18:46:50.691Z,7.44
2022-11-21T18:49:18.485Z,7.44
2022-11-21T18:51:46.304Z,7.41
2022-11-21T18:54:13.933Z,7.44
2022-11-21T18:56:41.642Z,7.43
2022-11-21T18:59:09.528Z,7.41
2022-11-21T19:01:39.737Z,7.40
2022-11-21T19:04:07.875Z,7.41
2022-11-21T19:06:35.902Z,7.40
2022-11-21T19:09:03.872Z,7.34
2022-11-21T19:11:31.430Z,7.43
2022-11-21T19:14:00.740Z,7.40
2022-11-21T19:16:31.495Z,7.40
2022-11-21T19:19:32.401Z,7.45
2022-11-21T19:21:47.544Z,7.39
2022-11-21T19:24:19.624Z,7.41
2022-11-21T19:26:50.355Z,7.38
2022-11-21T19:29:18.674Z,7.38
2022-11-21T19:31:46.381Z,7.43
2022-11-21T19:34:15.704Z,7.50
2022-11-21T19:36:44.736Z,7.40
2022-11-21T19:39:13.257Z,7.39
2022-11-21T19:41:41.357Z,7.48
2022-11-21T19:44:09.762Z,7.50
2022-11-21T19:46:39.087Z,7.48
2022-11-21T19:49:09.968Z,7.43
2022-11-21T19:51:41.882Z,7.49
2022-11-21T19:54:12.513Z,7.48
2022-11-21T19:56:41.244Z,7.55
2022-11-21T19:59:12.646Z,7.46
2022-11-21T20:01:40.862Z,7.48
2022-11-21T20:04:08.719Z,7.50
2022-11-21T20:06:41.363Z,7.52
2022-11-21T20:09:12.883Z,7.57
2022-11-21T20:11:43.529Z,7.64
2022-11-21T20:14:19.598Z,7.59
2022-11-21T20:16:50.436Z,7.60
2022-11-21T20:19:20.486Z,7.65
2022-11-21T20:21:48.385Z,7.68
2022-11-21T20:24:16.519Z,7.58
2022-11-21T20:26:44.755Z,7.64
2022-11-21T20:29:15.820Z,7.64
2022-11-21T20:31:44.282Z,7.58
2022-11-21T20:34:13.219Z,7.66
2022-11-21T20:36:41.602Z,7.66
2022-11-21T20:39:17.630Z,7.66
2022-11-21T20:41:47.066Z,7.59
2022-11-21T20:47:08.088Z,7.68
2022-11-21T20:49:36.599Z,7.66
2022-11-21T20:54:52.027Z,7.63
2022-11-21T20:57:19.609Z,7.68
2022-11-21T20:59:47.263Z,7.63
2022-11-21T21:02:16.081Z,7.71
2022-11-21T21:04:43.804Z,7.66
2022-11-21T21:07:11.486Z,7.70
2022-11-21T21:09:39.575Z,7.65
2022-11-21T21:12:07.717Z,7.67
2022-11-21T21:14:36.447Z,7.61
2022-11-21T21:17:04.064Z,7.63
2022-11-21T21:19:32.083Z,7.68
2022-11-21T21:22:00.767Z,7.65
2022-11-21T21:24:28.408Z,7.66
2022-11-21T21:26:56.108Z,7.54
2022-11-21T21:29:23.761Z,7.57
2022-11-21T21:31:52.546Z,7.52
2022-11-21T21:34:22.103Z,7.48
2022-11-21T21:36:50.895Z,7.42
2022-11-21T21:39:18.895Z,7.40
2022-11-21T21:41:47.586Z,7.43
2022-11-21T21:44:16.237Z,7.34
2022-11-21T21:46:44.630Z,7.33
2022-11-21T21:49:12.487Z,7.39
2022-11-21T21:51:40.407Z,7.37
2022-11-21T21:54:18.646Z,7.36
2022-11-21T21:56:47.598Z,7.34
2022-11-21T21:59:15.386Z,7.34
2022-11-21T22:01:43.047Z,7.32
2022-11-21T22:04:12.566Z,7.28
2022-11-21T22:06:40.524Z,7.21
2022-11-21T22:09:08.290Z,7.23
2022-11-21T22:11:38.485Z,7.30
2022-11-21T22:14:12.092Z,7.23
2022-11-21T22:16:40.369Z,7.19
2022-11-21T22:19:08.597Z,7.18
2022-11-21T22:21:38.764Z,7.11
2022-11-21T22:24:29.511Z,7.09
2022-11-21T22:26:57.322Z,7.11
2022-11-21T22:29:25.165Z,7.03
2022-11-21T22:31:52.894Z,6.96
2022-11-21T22:34:20.833Z,6.98
2022-11-21T22:36:48.501Z,7.01
2022-11-21T22:39:16.670Z,6.97
2022-11-21T22:41:44.297Z,6.91
2022-11-21T22:44:12.026Z,6.93
2022-11-21T22:46:39.620Z,6.84
2022-11-21T22:49:07.202Z,6.90
2022-11-21T22:51:34.925Z,6.93
2022-11-21T22:54:02.510Z,6.90
2022-11-21T22:56:30.174Z,6.81
2022-11-21T22:58:57.737Z,6.86
2022-11-21T23:01:26.579Z,6.84
2022-11-21T23:03:55.715Z,6.78
2022-11-21T23:06:26.117Z,6.72
2022-11-21T23:08:55.899Z,6.81
2022-11-21T23:11:28.092Z,6.79
2022-11-21T23:13:57.286Z,6.74
2022-11-21T23:16:26.036Z,6.75
2022-11-21T23:18:55.479Z,6.69
2022-11-21T23:21:23.212Z,6.68
2022-11-21T23:23:50.928Z,6.69
2022-11-21T23:26:18.852Z,6.69
2022-11-21T23:28:46.837Z,6.72
2022-11-21T23:31:14.734Z,6.67
2022-11-21T23:33:42.456Z,6.73
2022-11-21T23:36:10.092Z,6.75
2022-11-21T23:38:37.772Z,6.64
2022-11-21T23:41:05.736Z,6.74
2022-11-21T23:43:33.530Z,6.65
2022-11-21T23:46:01.377Z,6.62
2022-11-21T23:48:28.963Z,6.66
2022-11-21T23:50:56.969Z,6.68
2022-11-21T23:53:24.686Z,6.64
2022-11-21T23:55:52.241Z,6.61
2022-11-21T23:58:19.853Z,6.66
